AirNav   Air Wisconsin Up To $57,000 Bonus
 
 1202 users online  

ND54 Whitman Field Airport
Robinson, North Dakota, USA

GOING TO ROBINSON?


FAA INFORMATION EFFECTIVE 01 DECEMBER 2022

Location

FAA Identifier: ND54
Lat/Long: 47-07-44.9650N 099-43-49.3940W
47-07.749417N 099-43.823233W
47.1291569,-99.7303872
(estimated)
Elevation: 1783 ft. / 543.5 m (surveyed)
Variation: 09E (1985)
From city: 3 miles SE of ROBINSON, ND
Time zone: UTC -6 (UTC -5 during Daylight Saving Time)
Zip code: 58478

Airport Operations

Airport use: Private use. Permission required prior to landing
Activation date: 08/1950
Control tower: no
ARTCC: MINNEAPOLIS CENTER
FSS: GRAND FORKS FLIGHT SERVICE STATION
Attendance: UNATNDD
Wind indicator: yes
Segmented circle: no
Lights: ACTVT LIRL RY 14/32 - CTAF.

Airport Services

Parking: tiedowns
Airframe service: NONE
Powerplant service: NONE
Bottled oxygen: NONE
Bulk oxygen: NONE

Runway Information

Runway 14/32

Dimensions: 2500 x 40 ft. / 762 x 12 m
Surface: asphalt/aggregate friction seal coat, in fair condition
Weight bearing capacity: 
Single wheel: 4.0
Runway edge lights: low intensity
TWY NOT LIGHTED.
RUNWAY 14  RUNWAY 32
Latitude: 47-07.932833N47-07.582667N
Longitude: 099-43.906333W099-43.589833W
Elevation: 1781.0 ft.1774.0 ft.
Traffic pattern: leftleft
Markings: nonenone
Obstructions: 15 ft. trees, 210 ft. from runway, 125 ft. right of centerline, 1:1 slope to clear
DIRT TRAIL 180'FM THR 100'R OF EXTDD CL.
17 ft. road, 230 ft. from runway, 128 ft. left of centerline, 1:1 slope to clear
+15'HAY STACKS 300'FM THR 100'L OF EXTDD CL APCH RATIO 6:1; +20'POLE 50'FM HR 50'L OF CL EXTDD APCH RATIO 12:1.

Airport Ownership and Management from official FAA records

Ownership: Privately-owned
Owner: ANNE WHITMAN ONGSTAD
3613- 20TH STREET SE
ROBINSON, ND 58478
Phone 701-392-5111
Manager: ANNE WHITMAN ONGSTAD
3613- 20TH STREET SE
ROBINSON, ND 58478
Phone 701-392-5111

Airport Operational Statistics

Aircraft based on the field: 1
Single engine airplanes: 1
    
Aircraft operations: avg 25/month *
67% local general aviation
33% transient general aviation
* for 12-month period ending 13 June 1990

Additional Remarks

CONFIRM WINTER CONDITIONS - CALL 701-392-5111; OTRW ARPT IS CLSD.
FOR CD CTC MINNEAPOLIS ARTCC AT 651-463-5588.

Instrument Procedures

There are no published instrument procedures at ND54.

Some nearby airports with instrument procedures:

46D - Carrington Municipal Airport (30 nm NE)
5H4 - Harvey Municipal Airport (41 nm N)
KJMS - Jamestown Regional Airport (45 nm E)
KBIS - Bismarck Municipal Airport (47 nm SW)
Y19 - Mandan Regional Airport/Lawler Field (52 nm SW)
 
Loc | Ops | Rwys | IFR | FBO | Links
Com | Nav | Svcs | Stats | Notes

Bismarck Aero Center
AirBoss

 
Area around ND54 (Whitman Field Airport)
 
Road maps at: MapQuest Bing Google
 
Aerial photo
No photo
 
Sectional chart

 
Airport distance calculator
Flying to Whitman Field Airport? Find the distance to fly.

From to ND54

Sunrise and sunset
Times for 03-Dec-2022
 Local
(UTC-6)
 Zulu
(UTC)
Morning civil twilight07:3313:33
Sunrise08:0814:08
Sunset16:5022:50
Evening civil twilight17:2523:25

Current date and time
Zulu (UTC)  04-Dec-2022 02:25:05
Local (UTC-6)  03-Dec-2022 20:25:05
 
METAR
K46D 
30nm NE 
040155Z AUTO 23006KT 10SM CLR M15/M18 A3011 RMK AO2
K5H4 
41nm N 
040155Z AUTO 22006KT 10SM CLR M17/M18 A3008 RMK AO2
KJMS 
45nm E 
040156Z AUTO 25005KT 10SM CLR M14/M17 A3010 RMK AO2 SLP235 T11391172
KBIS 
47nm SW 
040152Z AUTO 00000KT 10SM CLR M15/M19 A3013 RMK AO2 SLP250 T11501189
TAF
KJMS 
45nm E 
032047Z 0321/0418 23008KT P6SM SKC FM040100 24008KT P6SM SKC FM040500 26010KT P6SM FEW250 WS010/29035KT FM041400 24011G19KT P6SM SKC WS010/28040KT FM041600 25015G24KT P6SM SKC
KBIS 
47nm SW 
032046Z 0321/0418 26006KT P6SM SKC FM040000 24005KT P6SM SKC FM041400 23010KT P6SM SKC WS020/28040KT
NOTAMs
Click for the latest NOTAMs
NOTAMs are issued by the DoD/FAA and will open in a separate window not controlled by AirNav.

 

 
 

Would you like to see your business listed on this page?

 If your business provides an interesting product or service to pilots, flight crews, aircraft, or users of the Whitman Field Airport, you should consider listing it here.  To start the listing process, click on the button below
 
Add a business
 

Other Pages about Whitman Field Airport

Update a link
 
Copyright © AirNav, LLC. All rights reserved. Privacy Policy  Contact